Time;durP1;ratioP1;P1;durP2;ratioP2;P2;SDS_P1;SDS_P2;PMS_P1;PMS_P2;Temp;Humidity;BMP_temperature;BMP_pressure;BME280_temperature;BME280_humidity;BME280_pressure;Samples;Min_cycle;Max_cycle;Signal;HPM_P1;HPM_P2
2021/03/31 00:00:31;;;;;;;5.17;2.10;;;8.60;99.90;;;;;;21006968;28;20385;-78
2021/03/31 00:10:39;;;;;;;6.88;2.22;;;8.60;99.90;;;;;;21006520;28;20040;-78
2021/03/31 00:20:41;;;;;;;11.77;2.33;;;8.30;99.90;;;;;;21003617;28;20040;-78
2021/03/31 00:30:42;;;;;;;6.57;2.53;;;7.90;99.90;;;;;;21005489;28;20032;-78
2021/03/31 00:40:49;;;;;;;3.90;2.00;;;8.50;99.90;;;;;;21009115;28;20037;-78
2021/03/31 00:50:54;;;;;;;9.70;2.53;;;8.60;99.90;;;;;;21005825;28;20610;-78
2021/03/31 01:00:55;;;;;;;6.22;2.70;;;8.60;99.90;;;;;;21011897;28;20383;-78
2021/03/31 01:10:58;;;;;;;6.47;2.67;;;8.40;99.90;;;;;;21004189;28;20119;-78
2021/03/31 01:21:17;;;;;;;10.73;3.35;;;8.40;99.90;;;;;;21001638;28;20024;-78
2021/03/31 01:31:43;;;;;;;7.20;2.40;;;8.10;99.90;;;;;;21013547;28;20067;-78
2021/03/31 01:41:45;;;;;;;9.93;2.45;;;7.80;99.90;;;;;;20999085;28;20032;-77
2021/03/31 01:51:48;;;;;;;7.68;2.67;;;8.00;99.90;;;;;;20999561;28;20447;-78
2021/03/31 02:01:55;;;;;;;7.00;2.90;;;8.30;99.90;;;;;;21000558;28;20037;-78
2021/03/31 02:11:59;;;;;;;7.03;2.78;;;8.30;99.90;;;;;;21001635;28;20115;-78
2021/03/31 02:22:00;;;;;;;9.32;2.90;;;8.30;99.90;;;;;;20995844;28;20043;-77
2021/03/31 02:32:01;;;;;;;;;;;7.70;99.90;;;;;;20992694;28;20033;-77
2021/03/31 02:42:04;;;;;;;8.10;2.80;;;7.30;99.90;;;;;;20993132;28;19912;-77
2021/03/31 02:52:07;;;;;;;5.82;2.65;;;7.20;99.90;;;;;;21007930;28;20485;-77
2021/03/31 03:02:09;;;;;;;5.70;2.38;;;7.20;99.90;;;;;;20997921;28;20604;-78
2021/03/31 03:12:15;;;;;;;5.97;2.78;;;7.10;99.90;;;;;;21005469;28;20364;-78
2021/03/31 03:22:17;;;;;;;11.48;3.00;;;7.10;99.90;;;;;;21004934;28;20032;-77
2021/03/31 03:32:19;;;;;;;10.82;4.00;;;7.40;99.90;;;;;;21001976;28;20122;-77
2021/03/31 03:42:20;;;;;;;9.10;3.10;;;7.60;99.90;;;;;;21001162;28;20029;-77
2021/03/31 03:52:23;;;;;;;14.17;3.67;;;7.70;99.90;;;;;;21002425;28;20036;-77
2021/03/31 04:02:24;;;;;;;8.43;3.97;;;7.70;99.90;;;;;;21005962;28;20032;-77
2021/03/31 04:12:26;;;;;;;11.03;3.10;;;7.50;99.90;;;;;;21002576;28;20514;-77
2021/03/31 04:22:27;;;;;;;9.35;5.03;;;7.20;99.90;;;;;;20998283;28;20029;-77
2021/03/31 04:32:29;;;;;;;8.37;4.13;;;6.60;99.90;;;;;;20998299;28;20024;-77
2021/03/31 04:42:30;;;;;;;6.60;3.75;;;6.80;99.90;;;;;;21004565;28;20040;-77
2021/03/31 04:52:31;;;;;;;7.70;4.03;;;7.20;99.90;;;;;;21016692;28;20042;-78
2021/03/31 05:02:32;;;;;;;6.50;4.00;;;7.30;99.90;;;;;;21015202;28;20041;-78
2021/03/31 05:12:33;;;;;;;7.60;2.90;;;7.30;99.90;;;;;;21006703;28;20494;-78
2021/03/31 05:22:33;;;;;;;7.87;3.50;;;7.20;99.90;;;;;;21018353;23;20044;-75
2021/03/31 05:32:35;;;;;;;8.80;3.80;;;6.90;99.90;;;;;;20940178;28;20025;-75
2021/03/31 05:42:37;;;;;;;9.68;3.38;;;7.10;99.90;;;;;;20909864;28;20112;-75
2021/03/31 05:52:39;;;;;;;5.35;3.45;;;7.30;99.90;;;;;;20906135;28;20407;-76
2021/03/31 06:02:45;;;;;;;5.68;2.88;;;7.40;99.90;;;;;;20905746;28;20040;-76
2021/03/31 06:12:59;;;;;;;9.68;3.75;;;7.50;99.90;;;;;;20889175;28;20513;-76
2021/03/31 06:33:13;;;;;;;8.85;4.10;;;8.40;99.90;;;;;;20906171;28;20491;-78
2021/03/31 06:43:21;;;;;;;10.67;4.93;;;8.50;99.90;;;;;;20912110;28;20099;-78
2021/03/31 06:53:27;;;;;;;8.48;4.80;;;8.70;99.90;;;;;;20919402;28;20120;-78
2021/03/31 07:03:28;;;;;;;8.57;4.55;;;9.40;99.90;;;;;;20920262;28;20032;-78
2021/03/31 07:13:30;;;;;;;8.03;4.43;;;10.10;99.90;;;;;;20901195;28;20039;-77
2021/03/31 07:23:30;;;;;;;10.13;5.32;;;10.20;99.90;;;;;;20916747;28;20029;-77
2021/03/31 07:33:39;;;;;;;9.30;5.50;;;10.20;99.90;;;;;;20917507;28;20437;-77
2021/03/31 07:43:43;;;;;;;11.55;5.93;;;11.00;99.90;;;;;;20915479;28;20056;-77
2021/03/31 07:53:46;;;;;;;13.35;5.38;;;12.00;99.90;;;;;;20915589;28;20032;-77
2021/03/31 08:03:47;;;;;;;12.00;6.32;;;12.70;99.90;;;;;;20915270;28;20033;-77
2021/03/31 08:13:52;;;;;;;15.17;7.47;;;12.70;99.90;;;;;;20914771;28;20491;-78
2021/03/31 08:23:55;;;;;;;18.17;6.75;;;13.20;99.90;;;;;;20913931;28;20487;-79
2021/03/31 08:33:56;;;;;;;11.52;6.78;;;13.90;99.90;;;;;;20913948;28;20040;-78
2021/03/31 08:44:24;;;;;;;14.60;6.70;;;14.50;99.90;;;;;;20914485;28;20034;-79
2021/03/31 08:54:39;;;;;;;13.00;7.45;;;15.30;99.90;;;;;;20914335;28;20029;-78
2021/03/31 09:04:40;;;;;;;12.98;8.02;;;16.30;99.90;;;;;;20912028;28;20029;-78
2021/03/31 09:14:45;;;;;;;15.97;8.30;;;18.00;99.90;;;;;;20913551;28;20124;-78
2021/03/31 09:24:49;;;;;;;15.23;7.82;;;18.60;99.90;;;;;;20924918;28;20055;-79
2021/03/31 09:34:50;;;;;;;16.05;7.78;;;19.40;99.90;;;;;;20896837;28;20037;-78
2021/03/31 09:44:53;;;;;;;17.60;8.23;;;19.60;99.90;;;;;;20912070;28;20086;-78
2021/03/31 09:54:55;;;;;;;17.13;7.70;;;20.40;99.90;;;;;;20907505;28;20037;-78
2021/03/31 10:05:08;;;;;;;17.63;7.60;;;21.90;99.90;;;;;;20909537;28;20107;-78
2021/03/31 10:15:11;;;;;;;17.60;7.70;;;22.20;99.90;;;;;;20911911;28;20135;-78
2021/03/31 10:25:32;;;;;;;14.25;7.95;;;21.90;99.90;;;;;;20932556;28;20426;-77
2021/03/31 10:35:55;;;;;;;15.48;7.50;;;21.70;99.90;;;;;;20934111;28;20043;-79
2021/03/31 10:56:17;;;;;;;14.93;7.47;;;23.30;98.90;;;;;;20868513;28;20043;-78
2021/03/31 11:06:18;;;;;;;18.33;7.43;;;23.50;97.50;;;;;;20920294;28;20451;-78
2021/03/31 11:16:19;;;;;;;15.00;6.80;;;24.00;95.30;;;;;;20924749;28;20028;-78
2021/03/31 11:26:20;;;;;;;19.30;6.87;;;23.90;95.10;;;;;;20921804;28;20036;-76
2021/03/31 11:36:20;;;;;;;8.33;4.77;;;24.50;94.70;;;;;;20916011;28;20041;-75
2021/03/31 11:46:21;;;;;;;10.53;3.83;;;24.40;93.00;;;;;;20916465;28;20475;-75
2021/03/31 11:56:22;;;;;;;10.50;3.90;;;26.00;87.40;;;;;;20915771;28;20060;-77
2021/03/31 12:06:23;;;;;;;9.63;4.10;;;25.00;85.60;;;;;;20923981;28;20040;-81
2021/03/31 12:16:24;;;;;;;10.50;2.90;;;24.70;83.90;;;;;;20927472;28;20033;-80
2021/03/31 12:26:24;;;;;;;9.17;2.87;;;24.00;81.80;;;;;;20922459;28;20494;-79
2021/03/31 12:36:25;;;;;;;4.77;2.50;;;23.90;86.50;;;;;;20905314;28;20497;-80
2021/03/31 12:46:26;;;;;;;9.87;2.50;;;24.00;79.00;;;;;;20933042;28;20124;-80
2021/03/31 12:56:27;;;;;;;5.73;2.70;;;23.80;71.20;;;;;;20873369;28;20034;-80
2021/03/31 13:06:31;;;;;;;6.37;2.57;;;24.50;78.20;;;;;;20879707;28;20025;-81
2021/03/31 13:16:43;;;;;;;7.65;2.28;;;24.00;71.10;;;;;;20873747;28;20295;-80
2021/03/31 13:47:04;;;;;;;7.03;1.85;;;25.00;67.30;;;;;;20838117;28;20029;-79
2021/03/31 13:57:06;;;;;;;6.22;2.33;;;24.50;67.50;;;;;;20834562;28;20072;-78
2021/03/31 14:07:08;;;;;;;8.35;2.15;;;24.90;64.80;;;;;;20886157;28;20029;-78
2021/03/31 14:17:15;;;;;;;8.95;2.10;;;25.20;65.00;;;;;;20916428;28;20048;-81
2021/03/31 14:27:19;;;;;;;7.85;2.20;;;25.20;64.20;;;;;;20852654;28;20095;-80
2021/03/31 14:37:20;;;;;;;9.88;1.70;;;25.10;61.70;;;;;;20833054;28;20037;-81
2021/03/31 14:47:21;;;;;;;7.23;2.30;;;25.10;59.70;;;;;;20847784;28;20032;-81
2021/03/31 15:07:28;;;;;;;11.55;2.00;;;25.80;59.30;;;;;;20857363;28;20076;-82
2021/03/31 15:17:29;;;;;;;11.30;2.20;;;25.60;64.50;;;;;;20910044;28;20033;-82
2021/03/31 15:27:30;;;;;;;6.57;2.10;;;25.30;59.10;;;;;;20910749;28;20571;-82
2021/03/31 15:37:31;;;;;;;7.93;2.20;;;25.50;60.10;;;;;;20911581;28;20032;-81
2021/03/31 15:47:35;;;;;;;7.53;2.43;;;25.30;59.30;;;;;;20849203;28;20103;-80
2021/03/31 15:57:37;;;;;;;7.15;2.88;;;25.20;61.00;;;;;;20822828;28;20033;-80
2021/03/31 16:07:39;;;;;;;8.27;1.98;;;24.70;59.80;;;;;;20821922;28;20057;-81
2021/03/31 16:17:39;;;;;;;;;;;24.60;61.40;;;;;;20822554;28;20083;-80
2021/03/31 16:38:00;;;;;;;6.13;2.10;;;24.10;59.70;;;;;;20829109;28;20049;-80
2021/03/31 16:48:01;;;;;;;8.30;1.73;;;23.90;63.80;;;;;;20827055;28;20384;-80
2021/03/31 16:58:02;;;;;;;7.18;2.10;;;23.70;60.20;;;;;;20823337;28;20044;-80
2021/03/31 17:08:03;;;;;;;6.33;1.93;;;23.40;60.00;;;;;;20811884;28;20080;-82
2021/03/31 17:18:05;;;;;;;10.47;2.53;;;23.00;68.30;;;;;;20872316;28;20529;-81
2021/03/31 17:28:07;;;;;;;10.95;2.40;;;22.30;71.60;;;;;;20924506;28;20084;-80
2021/03/31 17:38:09;;;;;;;5.13;1.80;;;21.50;74.20;;;;;;20927289;28;20107;-79
2021/03/31 17:48:10;;;;;;;5.75;2.20;;;20.90;75.30;;;;;;20868906;28;20292;-79
2021/03/31 17:58:11;;;;;;;9.17;2.90;;;20.20;81.40;;;;;;20813966;28;20030;-80
2021/03/31 18:08:12;;;;;;;6.47;2.33;;;19.10;87.90;;;;;;20820285;28;20033;-79
2021/03/31 18:18:13;;;;;;;7.53;3.17;;;17.80;87.20;;;;;;20878491;28;20514;-78
2021/03/31 18:28:15;;;;;;;14.17;4.33;;;17.10;92.00;;;;;;20927869;28;20041;-78
2021/03/31 18:38:16;;;;;;;16.17;3.63;;;16.70;92.80;;;;;;20932520;28;20044;-79
2021/03/31 18:48:18;;;;;;;9.27;2.85;;;15.80;95.50;;;;;;20877484;28;20033;-78
2021/03/31 18:58:18;;;;;;;12.70;4.80;;;15.70;95.70;;;;;;21007201;28;20032;-78
2021/03/31 19:18:20;;;;;;;13.15;3.25;;;14.70;99.90;;;;;;20901294;28;20025;-78
2021/03/31 19:28:22;;;;;;;13.73;3.70;;;14.30;99.90;;;;;;20958181;28;20058;-77
2021/03/31 19:38:23;;;;;;;7.73;2.97;;;14.30;99.90;;;;;;20980441;28;20030;-78
2021/03/31 19:48:23;;;;;;;12.52;3.67;;;13.80;99.90;;;;;;20865499;28;20152;-78
2021/03/31 19:58:26;;;;;;;14.85;4.13;;;13.40;99.90;;;;;;20845187;28;20076;-79
2021/03/31 20:08:27;;;;;;;7.10;3.58;;;13.40;99.90;;;;;;20846886;28;20029;-78
2021/03/31 20:18:28;;;;;;;16.87;3.37;;;13.20;99.90;;;;;;20856829;28;20443;-78
2021/03/31 20:28:29;;;;;;;19.27;3.42;;;13.10;99.90;;;;;;20846182;28;20037;-79
2021/03/31 20:38:30;;;;;;;9.98;3.20;;;12.90;99.90;;;;;;20845205;28;20411;-78
2021/03/31 20:48:31;;;;;;;9.60;3.45;;;12.90;99.90;;;;;;20873756;28;20175;-78
2021/03/31 20:58:32;;;;;;;9.18;3.58;;;12.40;99.90;;;;;;20836185;28;20067;-78
2021/03/31 21:08:32;;;;;;;6.35;3.35;;;12.40;99.90;;;;;;20887029;28;20892;-79
2021/03/31 21:18:33;;;;;;;6.43;3.42;;;12.80;99.90;;;;;;20893368;28;20033;-80
2021/03/31 21:28:34;;;;;;;12.65;3.20;;;12.60;99.90;;;;;;20879698;28;20033;-79
2021/03/31 21:38:35;;;;;;;10.30;3.55;;;12.30;99.90;;;;;;20874444;28;20029;-78
2021/03/31 21:48:36;;;;;;;11.37;3.50;;;11.40;99.90;;;;;;20904085;28;20053;-80
2021/03/31 21:58:37;;;;;;;8.25;3.75;;;12.20;99.90;;;;;;20940811;28;20056;-79
2021/03/31 22:08:38;;;;;;;10.27;3.40;;;12.80;99.90;;;;;;20931830;28;20074;-80
2021/03/31 22:18:39;;;;;;;12.15;3.35;;;12.60;99.90;;;;;;20948475;28;20044;-79
2021/03/31 22:28:40;;;;;;;9.85;3.30;;;12.60;99.90;;;;;;20959871;28;20021;-79
2021/03/31 22:38:45;;;;;;;6.97;3.28;;;12.50;99.90;;;;;;20948092;28;20041;-79
2021/03/31 22:48:47;;;;;;;8.88;3.67;;;12.50;99.90;;;;;;20945322;28;20030;-79
2021/03/31 22:58:51;;;;;;;10.57;3.38;;;12.30;99.90;;;;;;20959848;28;20029;-79
2021/03/31 23:08:52;;;;;;;7.72;3.70;;;12.10;99.90;;;;;;20927185;28;20554;-78
2021/03/31 23:18:53;;;;;;;13.77;2.97;;;11.80;99.90;;;;;;20987748;28;20036;-78
2021/03/31 23:28:54;;;;;;;7.32;3.03;;;11.80;99.90;;;;;;20967667;28;20483;-79
2021/03/31 23:38:55;;;;;;;9.55;3.30;;;12.00;99.90;;;;;;20952054;28;20052;-79
2021/03/31 23:48:56;;;;;;;8.87;3.67;;;12.10;99.90;;;;;;20959264;28;20052;-79
2021/03/31 23:58:57;;;;;;;5.17;3.20;;;12.00;99.90;;;;;;20953231;28;20501;-78
